createdAt,value
2018-02-27T00:00:26.229Z,1021.67
2018-02-27T00:01:26.212Z,1021.65
2018-02-27T00:02:26.197Z,1021.64
2018-02-27T00:03:26.185Z,1021.66
2018-02-27T00:04:26.166Z,1021.60
2018-02-27T00:05:26.154Z,1021.62
2018-02-27T00:06:26.137Z,1021.58
2018-02-27T00:07:26.124Z,1021.57
2018-02-27T00:08:26.101Z,1021.55
2018-02-27T00:09:26.088Z,1021.56
2018-02-27T00:10:26.069Z,1021.57
2018-02-27T00:11:26.056Z,1021.57
2018-02-27T00:12:26.040Z,1021.56
2018-02-27T00:13:26.025Z,1021.57
2018-02-27T00:14:26.007Z,1021.59
2018-02-27T00:15:25.991Z,1021.56
2018-02-27T00:16:25.973Z,1021.55
2018-02-27T00:17:25.961Z,1021.53
2018-02-27T00:18:25.945Z,1021.54
2018-02-27T00:19:25.930Z,1021.55
2018-02-27T00:20:25.911Z,1021.55
2018-02-27T00:21:25.898Z,1021.57
2018-02-27T00:22:25.881Z,1021.53
2018-02-27T00:23:25.864Z,1021.55
2018-02-27T00:24:25.846Z,1021.52
2018-02-27T00:25:25.832Z,1021.51
2018-02-27T00:26:25.818Z,1021.50
2018-02-27T00:27:25.806Z,1021.51
2018-02-27T00:28:25.787Z,1021.50
2018-02-27T00:29:25.771Z,1021.49
2018-02-27T00:30:25.754Z,1021.45
2018-02-27T00:31:25.739Z,1021.48
2018-02-27T00:32:25.721Z,1021.54
2018-02-27T00:33:25.705Z,1021.54
2018-02-27T00:34:25.690Z,1021.50
2018-02-27T00:35:25.675Z,1021.52
2018-02-27T00:36:25.659Z,1021.52
2018-02-27T00:37:25.644Z,1021.50
2018-02-27T00:38:25.626Z,1021.48
2018-02-27T00:39:25.613Z,1021.49
2018-02-27T00:40:25.594Z,1021.50
2018-02-27T00:41:25.579Z,1021.48
2018-02-27T00:42:25.561Z,1021.48
2018-02-27T00:43:25.553Z,1021.45
2018-02-27T00:44:25.548Z,1021.47
2018-02-27T00:45:25.515Z,1021.42
2018-02-27T00:46:25.497Z,1021.43
2018-02-27T00:47:25.482Z,1021.43
2018-02-27T00:48:25.472Z,1021.40
2018-02-27T00:49:25.468Z,1021.44
2018-02-27T00:50:25.435Z,1021.42
2018-02-27T00:51:25.420Z,1021.40
2018-02-27T00:52:25.404Z,1021.41
2018-02-27T00:53:25.384Z,1021.42
2018-02-27T00:54:25.371Z,1021.42
2018-02-27T00:55:25.352Z,1021.41
2018-02-27T00:56:25.341Z,1021.45
2018-02-27T00:57:25.323Z,1021.42
2018-02-27T00:58:25.310Z,1021.41
2018-02-27T00:59:25.289Z,1021.40
2018-02-27T01:00:25.274Z,1021.40
2018-02-27T01:01:25.256Z,1021.37
2018-02-27T01:02:25.241Z,1021.39
2018-02-27T01:03:25.224Z,1021.35
2018-02-27T01:04:25.209Z,1021.34
2018-02-27T01:05:25.195Z,1021.35
2018-02-27T01:06:25.180Z,1021.31
2018-02-27T01:07:25.159Z,1021.31
2018-02-27T01:08:25.146Z,1021.26
2018-02-27T01:09:25.142Z,1021.25
2018-02-27T01:10:25.117Z,1021.23
2018-02-27T01:11:25.095Z,1021.22
2018-02-27T01:12:25.082Z,1021.26
2018-02-27T01:13:25.073Z,1021.19
2018-02-27T01:14:25.049Z,1021.18
2018-02-27T01:15:25.036Z,1021.21
2018-02-27T01:16:25.016Z,1021.19
2018-02-27T01:17:25.001Z,1021.18
2018-02-27T01:18:24.983Z,1021.12
2018-02-27T01:19:24.970Z,1021.12
2018-02-27T01:20:24.950Z,1021.10
2018-02-27T01:21:24.937Z,1021.15
2018-02-27T01:22:24.919Z,1021.11
2018-02-27T01:23:24.903Z,1021.06
2018-02-27T01:24:24.889Z,1021.10
2018-02-27T01:25:24.872Z,1021.08
2018-02-27T01:26:24.855Z,1021.06
2018-02-27T01:27:24.838Z,1021.09
2018-02-27T01:28:24.824Z,1021.03
2018-02-27T01:29:24.807Z,1021.06
2018-02-27T01:30:24.790Z,1021.07
2018-02-27T01:31:24.774Z,1021.10
2018-02-27T01:32:24.759Z,1021.10
2018-02-27T01:33:24.747Z,1021.06
2018-02-27T01:34:24.728Z,1021.07
2018-02-27T01:35:24.710Z,1021.05
2018-02-27T01:36:24.696Z,1021.06
2018-02-27T01:37:24.684Z,1021.05
2018-02-27T01:38:24.662Z,1021.06
2018-02-27T01:39:24.643Z,1021.07
2018-02-27T01:40:24.628Z,1021.06
2018-02-27T01:41:24.613Z,1021.09
2018-02-27T01:42:24.598Z,1021.05
2018-02-27T01:43:24.580Z,1021.06
2018-02-27T01:44:24.568Z,1021.08
2018-02-27T01:45:24.550Z,1021.01
2018-02-27T01:46:24.532Z,1021.03
2018-02-27T01:47:24.513Z,1021.02
2018-02-27T01:48:24.501Z,1021.02
2018-02-27T01:49:24.483Z,1021.01
2018-02-27T01:50:24.468Z,1021.04
2018-02-27T01:51:24.454Z,1021.00
2018-02-27T01:52:24.439Z,1020.94
2018-02-27T01:53:24.427Z,1020.91
2018-02-27T01:54:24.402Z,1020.91
2018-02-27T01:55:24.385Z,1020.93
2018-02-27T01:56:24.368Z,1020.90
2018-02-27T01:57:24.354Z,1020.89
2018-02-27T01:58:24.338Z,1020.89
2018-02-27T01:59:24.322Z,1020.91
2018-02-27T02:00:24.304Z,1020.91
2018-02-27T02:01:24.295Z,1020.89
2018-02-27T02:02:24.278Z,1020.86
2018-02-27T02:03:24.256Z,1020.86
2018-02-27T02:04:24.240Z,1020.86
2018-02-27T02:05:24.221Z,1020.80
2018-02-27T02:06:24.207Z,1020.81
2018-02-27T02:07:24.193Z,1020.73
2018-02-27T02:08:24.180Z,1020.77
2018-02-27T02:09:24.158Z,1020.75
2018-02-27T02:10:24.145Z,1020.74
2018-02-27T02:11:24.125Z,1020.77
2018-02-27T02:12:24.114Z,1020.75
2018-02-27T02:13:24.093Z,1020.73
2018-02-27T02:14:24.074Z,1020.74
2018-02-27T02:15:24.061Z,1020.70
2018-02-27T02:16:24.044Z,1020.70
2018-02-27T02:17:24.028Z,1020.71
2018-02-27T02:18:24.019Z,1020.66
2018-02-27T02:19:23.996Z,1020.64
2018-02-27T02:20:23.979Z,1020.64
2018-02-27T02:21:23.968Z,1020.65
2018-02-27T02:22:23.944Z,1020.61
2018-02-27T02:23:23.928Z,1020.63
2018-02-27T02:24:23.916Z,1020.60
2018-02-27T02:25:23.898Z,1020.62
2018-02-27T02:26:23.881Z,1020.61
2018-02-27T02:27:23.866Z,1020.63
2018-02-27T02:28:23.848Z,1020.66
2018-02-27T02:29:23.832Z,1020.63
2018-02-27T02:30:23.820Z,1020.65
2018-02-27T02:31:23.799Z,1020.68
2018-02-27T02:32:23.782Z,1020.63
2018-02-27T02:33:23.776Z,1020.66
2018-02-27T02:34:23.751Z,1020.63
2018-02-27T02:35:23.735Z,1020.65
2018-02-27T02:36:23.717Z,1020.65
2018-02-27T02:37:23.699Z,1020.60
2018-02-27T02:38:23.685Z,1020.60
2018-02-27T02:39:23.666Z,1020.59
2018-02-27T02:40:23.651Z,1020.59
2018-02-27T02:41:23.636Z,1020.57
2018-02-27T02:42:23.618Z,1020.59
2018-02-27T02:43:23.607Z,1020.57
2018-02-27T02:44:23.586Z,1020.55
2018-02-27T02:45:23.566Z,1020.53
2018-02-27T02:46:23.550Z,1020.52
2018-02-27T02:47:23.534Z,1020.54
2018-02-27T02:48:23.518Z,1020.52
2018-02-27T02:49:23.501Z,1020.49
2018-02-27T02:50:23.484Z,1020.52
2018-02-27T02:51:23.473Z,1020.48
2018-02-27T02:52:23.458Z,1020.47
2018-02-27T02:53:23.439Z,1020.51
2018-02-27T02:54:23.418Z,1020.50
2018-02-27T02:55:23.400Z,1020.47
2018-02-27T02:56:23.384Z,1020.52
2018-02-27T02:57:23.370Z,1020.51
2018-02-27T02:58:23.347Z,1020.51
2018-02-27T02:59:23.335Z,1020.50
2018-02-27T03:00:23.318Z,1020.49
2018-02-27T03:01:23.308Z,1020.48
2018-02-27T03:02:23.284Z,1020.50
2018-02-27T03:03:23.272Z,1020.51
2018-02-27T03:04:23.252Z,1020.49
2018-02-27T03:05:23.239Z,1020.45
2018-02-27T03:06:23.218Z,1020.40
2018-02-27T03:07:23.206Z,1020.38
2018-02-27T03:08:23.186Z,1020.38
2018-02-27T03:09:23.170Z,1020.38
2018-02-27T03:10:23.153Z,1020.39
2018-02-27T03:11:23.137Z,1020.37
2018-02-27T03:12:23.122Z,1020.34
2018-02-27T03:13:23.103Z,1020.31
2018-02-27T03:14:23.087Z,1020.34
2018-02-27T03:15:23.071Z,1020.34
2018-02-27T03:16:23.052Z,1020.30
2018-02-27T03:17:23.040Z,1020.32
2018-02-27T03:18:23.025Z,1020.33
2018-02-27T03:19:23.004Z,1020.31
2018-02-27T03:20:22.996Z,1020.31
2018-02-27T03:21:22.971Z,1020.28
2018-02-27T03:22:22.951Z,1020.23
2018-02-27T03:23:22.937Z,1020.24
2018-02-27T03:24:22.924Z,1020.23
2018-02-27T03:25:22.908Z,1020.25
2018-02-27T03:26:22.886Z,1020.24
2018-02-27T03:27:22.870Z,1020.23
2018-02-27T03:28:22.855Z,1020.23
2018-02-27T03:29:22.840Z,1020.21
2018-02-27T03:30:22.828Z,1020.19
2018-02-27T03:31:22.809Z,1020.17
2018-02-27T03:32:22.788Z,1020.22
2018-02-27T03:33:22.770Z,1020.15
2018-02-27T03:34:22.753Z,1020.15
2018-02-27T03:35:22.740Z,1020.15
2018-02-27T03:36:22.721Z,1020.17
2018-02-27T03:37:22.706Z,1020.11
2018-02-27T03:38:22.687Z,1020.13
2018-02-27T03:39:22.672Z,1020.10
2018-02-27T03:40:22.654Z,1020.04
2018-02-27T03:41:22.638Z,1020.11
2018-02-27T03:42:22.621Z,1020.05
2018-02-27T03:43:22.605Z,1020.02
2018-02-27T03:44:22.589Z,1020.03
2018-02-27T03:45:22.573Z,1020.02
2018-02-27T03:46:22.556Z,1020.01
2018-02-27T03:47:22.539Z,1020.00
2018-02-27T03:48:22.525Z,1020.02
2018-02-27T03:49:22.506Z,1020.01
2018-02-27T03:50:22.496Z,1020.02
2018-02-27T03:51:22.472Z,1019.98
2018-02-27T03:52:22.458Z,1019.97
2018-02-27T03:53:22.439Z,1020.00
2018-02-27T03:54:22.423Z,1019.94
2018-02-27T03:55:22.405Z,1019.96
2018-02-27T03:56:22.394Z,1019.93
2018-02-27T03:57:22.376Z,1019.98
2018-02-27T03:58:22.358Z,1020.00
2018-02-27T03:59:22.340Z,1019.99
2018-02-27T04:00:22.322Z,1019.95
2018-02-27T04:01:22.308Z,1020.01
2018-02-27T04:02:22.290Z,1020.00
2018-02-27T04:03:22.273Z,1019.98
2018-02-27T04:04:22.260Z,1019.96
2018-02-27T04:05:22.240Z,1019.94
2018-02-27T04:06:22.224Z,1019.93
2018-02-27T04:07:22.207Z,1019.99
2018-02-27T04:08:22.189Z,1019.94
2018-02-27T04:09:22.173Z,1019.94
2018-02-27T04:10:22.156Z,1019.97
2018-02-27T04:11:22.136Z,1019.92
2018-02-27T04:12:22.123Z,1019.91
2018-02-27T04:13:22.107Z,1019.89
2018-02-27T04:14:22.088Z,1019.85
2018-02-27T04:15:22.071Z,1019.85
2018-02-27T04:16:22.058Z,1019.87
2018-02-27T04:17:22.039Z,1019.86
2018-02-27T04:18:22.023Z,1019.89
2018-02-27T04:19:22.006Z,1019.88
2018-02-27T04:20:21.989Z,1019.87
2018-02-27T04:21:21.971Z,1019.87
2018-02-27T04:22:21.954Z,1019.88
2018-02-27T04:23:21.938Z,1019.87
2018-02-27T04:24:21.927Z,1019.85
2018-02-27T04:25:21.905Z,1019.82
2018-02-27T04:26:21.890Z,1019.84
2018-02-27T04:27:21.871Z,1019.84
2018-02-27T04:28:21.853Z,1019.81
2018-02-27T04:29:21.840Z,1019.82
2018-02-27T04:30:21.821Z,1019.81
2018-02-27T04:31:21.805Z,1019.77
2018-02-27T04:32:21.787Z,1019.77
2018-02-27T04:33:21.770Z,1019.78
2018-02-27T04:34:21.758Z,1019.75
2018-02-27T04:35:21.738Z,1019.77
2018-02-27T04:36:21.721Z,1019.77
2018-02-27T04:37:21.704Z,1019.75
2018-02-27T04:38:21.691Z,1019.76
2018-02-27T04:39:21.667Z,1019.74
2018-02-27T04:40:21.654Z,1019.78
2018-02-27T04:41:21.639Z,1019.77
2018-02-27T04:42:21.621Z,1019.78
2018-02-27T04:43:21.606Z,1019.76
2018-02-27T04:44:21.590Z,1019.76
2018-02-27T04:45:21.573Z,1019.76
2018-02-27T04:46:21.557Z,1019.71
2018-02-27T04:47:21.536Z,1019.69
2018-02-27T04:48:21.520Z,1019.69
2018-02-27T04:49:21.504Z,1019.69
2018-02-27T04:50:21.485Z,1019.68
2018-02-27T04:51:21.470Z,1019.63
2018-02-27T04:52:21.449Z,1019.62
2018-02-27T04:53:21.440Z,1019.58
2018-02-27T04:54:21.426Z,1019.57
2018-02-27T04:55:21.403Z,1019.59
2018-02-27T04:56:21.386Z,1019.58
2018-02-27T04:57:21.374Z,1019.57
2018-02-27T04:58:21.353Z,1019.53
2018-02-27T04:59:21.336Z,1019.50
2018-02-27T05:00:21.322Z,1019.49
2018-02-27T05:01:21.301Z,1019.52
2018-02-27T05:02:21.286Z,1019.50
2018-02-27T05:03:21.277Z,1019.49
2018-02-27T05:04:21.254Z,1019.49
2018-02-27T05:05:21.230Z,1019.48
2018-02-27T05:06:21.217Z,1019.49
2018-02-27T05:07:21.200Z,1019.47
2018-02-27T05:08:21.198Z,1019.47
2018-02-27T05:09:21.168Z,1019.49
2018-02-27T05:10:21.150Z,1019.44
2018-02-27T05:11:21.137Z,1019.47
2018-02-27T05:12:21.119Z,1019.46
2018-02-27T05:13:21.101Z,1019.44
2018-02-27T05:14:21.084Z,1019.45
2018-02-27T05:15:21.067Z,1019.37
2018-02-27T05:16:21.058Z,1019.41
2018-02-27T05:17:21.034Z,1019.37
2018-02-27T05:18:21.020Z,1019.37
2018-02-27T05:19:21.000Z,1019.34
2018-02-27T05:20:20.985Z,1019.34
2018-02-27T05:21:20.970Z,1019.31
2018-02-27T05:22:20.951Z,1019.34
2018-02-27T05:23:20.932Z,1019.37
2018-02-27T05:24:20.927Z,1019.37
2018-02-27T05:25:20.902Z,1019.38
2018-02-27T05:26:20.882Z,1019.36
2018-02-27T05:27:20.863Z,1019.32
2018-02-27T05:28:20.850Z,1019.30
2018-02-27T05:29:20.833Z,1019.31
2018-02-27T05:30:20.815Z,1019.32
2018-02-27T05:31:20.799Z,1019.29
2018-02-27T05:32:20.783Z,1019.31
2018-02-27T05:33:20.766Z,1019.28
2018-02-27T05:34:20.761Z,1019.25
2018-02-27T05:35:20.731Z,1019.24
2018-02-27T05:36:20.714Z,1019.22
2018-02-27T05:37:20.700Z,1019.24
2018-02-27T05:38:20.681Z,1019.21
2018-02-27T05:39:20.669Z,1019.21
2018-02-27T05:40:20.645Z,1019.24
2018-02-27T05:41:20.632Z,1019.24
2018-02-27T05:42:20.615Z,1019.21
2018-02-27T05:43:20.596Z,1019.22
2018-02-27T05:44:20.584Z,1019.25
2018-02-27T05:45:20.567Z,1019.30
2018-02-27T05:46:20.546Z,1019.28
2018-02-27T05:47:20.533Z,1019.29
2018-02-27T05:48:20.513Z,1019.33
2018-02-27T05:49:20.495Z,1019.32
2018-02-27T05:50:20.480Z,1019.31
2018-02-27T05:51:20.463Z,1019.36
2018-02-27T05:52:20.451Z,1019.39
2018-02-27T05:53:20.425Z,1019.37
2018-02-27T05:54:20.414Z,1019.41
2018-02-27T05:55:20.398Z,1019.37
2018-02-27T05:56:20.380Z,1019.37
2018-02-27T05:57:20.365Z,1019.34
2018-02-27T05:58:20.346Z,1019.39
2018-02-27T05:59:20.329Z,1019.40
2018-02-27T06:00:20.315Z,1019.41
2018-02-27T06:01:20.295Z,1019.41
2018-02-27T06:02:20.295Z,1019.39
2018-02-27T06:03:20.262Z,1019.40
2018-02-27T06:04:20.250Z,1019.46
2018-02-27T06:05:20.228Z,1019.40
2018-02-27T06:06:20.209Z,1019.41
2018-02-27T06:07:20.193Z,1019.39
2018-02-27T06:08:20.176Z,1019.36
2018-02-27T06:09:20.158Z,1019.33
2018-02-27T06:10:20.139Z,1019.37
2018-02-27T06:11:20.124Z,1019.33
2018-02-27T06:12:20.109Z,1019.34
2018-02-27T06:13:20.094Z,1019.35
2018-02-27T06:14:20.079Z,1019.34
2018-02-27T06:15:20.057Z,1019.33
2018-02-27T06:16:20.043Z,1019.37
2018-02-27T06:17:20.024Z,1019.34
2018-02-27T06:18:20.006Z,1019.34
2018-02-27T06:19:19.989Z,1019.33
2018-02-27T06:20:19.973Z,1019.37
2018-02-27T06:21:19.955Z,1019.29
2018-02-27T06:22:19.939Z,1019.29
2018-02-27T06:23:19.940Z,1019.26
2018-02-27T06:24:19.921Z,1019.28
2018-02-27T06:25:19.887Z,1019.28
2018-02-27T06:26:19.874Z,1019.31
2018-02-27T06:27:19.858Z,1019.30
2018-02-27T06:28:19.836Z,1019.32
2018-02-27T06:29:19.822Z,1019.32
2018-02-27T06:30:19.816Z,1019.32
2018-02-27T06:31:19.813Z,1019.32
2018-02-27T06:32:19.770Z,1019.33
2018-02-27T06:33:19.754Z,1019.32
2018-02-27T06:34:19.737Z,1019.33
2018-02-27T06:35:19.721Z,1019.34
2018-02-27T06:36:19.706Z,1019.29
2018-02-27T06:37:19.711Z,1019.30
2018-02-27T06:38:19.671Z,1019.34
2018-02-27T06:39:19.657Z,1019.31
2018-02-27T06:40:19.635Z,1019.38
2018-02-27T06:41:19.620Z,1019.36
2018-02-27T06:42:19.604Z,1019.41
2018-02-27T06:43:19.587Z,1019.42
2018-02-27T06:44:19.576Z,1019.40
2018-02-27T06:45:19.553Z,1019.39
2018-02-27T06:46:19.536Z,1019.35
2018-02-27T06:47:19.518Z,1019.34
2018-02-27T06:48:19.510Z,1019.34
2018-02-27T06:49:19.487Z,1019.35
2018-02-27T06:50:19.470Z,1019.31
2018-02-27T06:51:19.454Z,1019.37
2018-02-27T06:52:19.443Z,1019.32
2018-02-27T06:53:19.423Z,1019.35
2018-02-27T06:54:19.399Z,1019.33
2018-02-27T06:55:19.389Z,1019.36
2018-02-27T06:56:19.371Z,1019.34
2018-02-27T06:57:19.356Z,1019.33
2018-02-27T06:58:19.340Z,1019.33
2018-02-27T06:59:19.323Z,1019.28
2018-02-27T07:00:19.317Z,1019.28
2018-02-27T07:01:19.289Z,1019.27
2018-02-27T07:02:19.276Z,1019.25
2018-02-27T07:03:19.259Z,1019.24
2018-02-27T07:04:19.242Z,1019.25
2018-02-27T07:05:19.225Z,1019.25
2018-02-27T07:06:19.226Z,1019.26
2018-02-27T07:07:19.192Z,1019.21
2018-02-27T07:08:19.177Z,1019.21
2018-02-27T07:09:19.160Z,1019.23
2018-02-27T07:10:19.152Z,1019.19
2018-02-27T07:11:19.127Z,1019.19
2018-02-27T07:12:19.109Z,1019.18
2018-02-27T07:13:19.096Z,1019.18
2018-02-27T07:14:19.082Z,1019.14
2018-02-27T07:15:19.064Z,1019.17
2018-02-27T07:16:19.047Z,1019.17
2018-02-27T07:17:19.038Z,1019.15
2018-02-27T07:18:19.015Z,1019.20
2018-02-27T07:19:19.000Z,1019.18
2018-02-27T07:20:18.982Z,1019.19
2018-02-27T07:21:18.971Z,1019.16
2018-02-27T07:22:18.952Z,1019.15
2018-02-27T07:23:18.937Z,1019.19
2018-02-27T07:24:18.921Z,1019.16
2018-02-27T07:25:18.908Z,1019.16
2018-02-27T07:26:18.891Z,1019.19
2018-02-27T07:27:18.872Z,1019.15
2018-02-27T07:28:18.865Z,1019.14
2018-02-27T07:29:18.845Z,1019.10
2018-02-27T07:30:18.825Z,1019.12
2018-02-27T07:31:18.816Z,1019.10
2018-02-27T07:32:18.796Z,1019.08
2018-02-27T07:33:18.787Z,1019.02
2018-02-27T07:34:18.765Z,1019.03
2018-02-27T07:35:18.796Z,1019.05
2018-02-27T07:36:18.736Z,1019.03
2018-02-27T07:37:18.721Z,1019.03
2018-02-27T07:38:18.705Z,1019.00
2018-02-27T07:39:18.691Z,1018.98
2018-02-27T07:40:18.677Z,1018.96
2018-02-27T07:41:18.666Z,1018.95
2018-02-27T07:42:18.647Z,1018.96
2018-02-27T07:43:18.631Z,1018.90
2018-02-27T07:44:18.615Z,1018.94
2018-02-27T07:45:18.600Z,1018.91
2018-02-27T07:46:18.584Z,1018.88
2018-02-27T07:47:18.618Z,1018.90
2018-02-27T07:48:18.555Z,1018.90
2018-02-27T07:49:18.537Z,1018.87
2018-02-27T07:50:18.525Z,1018.90
2018-02-27T07:51:18.510Z,1018.89
2018-02-27T07:52:18.493Z,1018.90
2018-02-27T07:53:18.480Z,1018.89
2018-02-27T07:54:18.464Z,1018.92
2018-02-27T07:55:18.453Z,1018.89
2018-02-27T07:56:18.435Z,1018.92
2018-02-27T07:57:18.419Z,1018.89
2018-02-27T07:58:18.405Z,1018.91
2018-02-27T07:59:18.394Z,1018.90
2018-02-27T08:00:18.375Z,1018.87
2018-02-27T08:01:18.364Z,1018.90
2018-02-27T08:02:18.344Z,1018.91
2018-02-27T08:03:18.329Z,1018.90
2018-02-27T08:04:18.316Z,1018.91
2018-02-27T08:05:18.296Z,1018.88
2018-02-27T08:06:18.291Z,1018.90
2018-02-27T08:07:18.271Z,1018.94
2018-02-27T08:08:18.255Z,1018.90
2018-02-27T08:09:18.241Z,1018.89
2018-02-27T08:10:18.227Z,1018.92
2018-02-27T08:11:18.211Z,1018.89
2018-02-27T08:12:18.200Z,1018.91
2018-02-27T08:13:18.181Z,1018.92
2018-02-27T08:14:18.165Z,1018.92
2018-02-27T08:15:18.150Z,1018.94
2018-02-27T08:16:18.135Z,1018.92
2018-02-27T08:17:18.117Z,1018.93
2018-02-27T08:18:18.105Z,1018.94
2018-02-27T08:19:18.092Z,1018.91
2018-02-27T08:20:18.076Z,1018.97
2018-02-27T08:21:18.071Z,1018.95
2018-02-27T08:22:18.047Z,1018.98
2018-02-27T08:23:18.029Z,1018.95
2018-02-27T08:24:18.019Z,1018.98
2018-02-27T08:25:18.001Z,1018.98
2018-02-27T08:26:17.987Z,1018.92
2018-02-27T08:27:17.969Z,1018.97
2018-02-27T08:28:17.956Z,1018.98
2018-02-27T08:29:17.944Z,1018.93
2018-02-27T08:30:17.928Z,1018.92
2018-02-27T08:31:17.911Z,1018.91
2018-02-27T08:32:17.898Z,1018.90
2018-02-27T08:33:17.883Z,1018.94
2018-02-27T08:34:17.868Z,1018.94
2018-02-27T08:35:17.852Z,1018.98
2018-02-27T08:36:17.839Z,1018.99
2018-02-27T08:37:17.824Z,1019.01
2018-02-27T08:38:17.808Z,1019.05
2018-02-27T08:39:17.799Z,1019.05
2018-02-27T08:40:17.781Z,1019.04
2018-02-27T08:41:17.767Z,1019.04
2018-02-27T08:42:17.750Z,1019.05
2018-02-27T08:43:17.736Z,1019.00
2018-02-27T08:44:17.767Z,1019.00
2018-02-27T08:45:17.707Z,1019.01
2018-02-27T08:46:17.695Z,1019.04
2018-02-27T08:47:17.677Z,1019.03
2018-02-27T08:48:17.664Z,1019.00
2018-02-27T08:49:17.648Z,1019.02
2018-02-27T08:50:17.633Z,1019.00
2018-02-27T08:51:17.627Z,1018.98
2018-02-27T08:52:17.607Z,1018.97
2018-02-27T08:53:17.592Z,1018.98
2018-02-27T08:54:17.577Z,1018.93
2018-02-27T08:55:17.562Z,1018.94
2018-02-27T08:56:17.548Z,1018.94
2018-02-27T08:57:17.537Z,1018.94
2018-02-27T08:58:17.519Z,1018.95
2018-02-27T08:59:17.507Z,1018.96
2018-02-27T09:00:17.491Z,1018.97
2018-02-27T09:01:17.481Z,1018.95
2018-02-27T09:02:17.462Z,1018.92
2018-02-27T09:03:17.446Z,1018.91
2018-02-27T09:04:17.437Z,1018.93
2018-02-27T09:05:17.421Z,1018.97
2018-02-27T09:06:17.407Z,1018.91
2018-02-27T09:07:17.391Z,1018.92
2018-02-27T09:08:17.377Z,1018.87
2018-02-27T09:09:17.362Z,1018.88
2018-02-27T09:10:17.346Z,1018.86
2018-02-27T09:11:17.338Z,1018.87
2018-02-27T09:12:17.320Z,1018.90
2018-02-27T09:13:17.310Z,1018.84
2018-02-27T09:14:17.292Z,1018.88
2018-02-27T09:15:17.280Z,1018.86
2018-02-27T09:16:17.268Z,1018.80
2018-02-27T09:17:17.253Z,1018.81
2018-02-27T09:18:17.239Z,1018.82
2018-02-27T09:19:17.258Z,1018.80
2018-02-27T09:20:17.271Z,1018.79
2018-02-27T09:21:17.198Z,1018.78
2018-02-27T09:22:17.184Z,1018.81
2018-02-27T09:23:17.171Z,1018.78
2018-02-27T09:24:17.156Z,1018.81
2018-02-27T09:25:17.144Z,1018.78
2018-02-27T09:26:17.130Z,1018.80
2018-02-27T09:27:17.152Z,1018.78
2018-02-27T09:28:17.103Z,1018.79
2018-02-27T09:29:17.094Z,1018.78
2018-02-27T09:30:17.076Z,1018.74
2018-02-27T09:31:17.071Z,1018.75
2018-02-27T09:32:17.048Z,1018.70
2018-02-27T09:33:17.037Z,1018.73
2018-02-27T09:34:17.022Z,1018.70
2018-02-27T09:35:17.009Z,1018.70
2018-02-27T09:36:16.998Z,1018.70
2018-02-27T09:37:16.992Z,1018.70
2018-02-27T09:38:16.969Z,1018.69
2018-02-27T09:39:16.959Z,1018.70
2018-02-27T09:40:16.944Z,1018.70
2018-02-27T09:41:16.929Z,1018.70
2018-02-27T09:42:16.917Z,1018.62
2018-02-27T09:43:16.908Z,1018.63
2018-02-27T09:44:16.896Z,1018.60
2018-02-27T09:45:16.879Z,1018.63
2018-02-27T09:46:16.866Z,1018.62
2018-02-27T09:47:16.852Z,1018.64
2018-02-27T09:48:16.841Z,1018.65
2018-02-27T09:49:16.828Z,1018.64
2018-02-27T09:50:16.815Z,1018.67
2018-02-27T09:51:16.800Z,1018.66
2018-02-27T09:52:16.789Z,1018.63
2018-02-27T09:53:16.779Z,1018.67
2018-02-27T09:54:16.764Z,1018.66
2018-02-27T09:55:16.754Z,1018.64
2018-02-27T09:56:16.739Z,1018.65
2018-02-27T09:57:16.726Z,1018.62
2018-02-27T09:58:16.713Z,1018.57
2018-02-27T09:59:16.702Z,1018.57
2018-02-27T10:00:16.685Z,1018.56
2018-02-27T10:01:16.677Z,1018.58
2018-02-27T10:02:16.661Z,1018.57
2018-02-27T10:03:16.650Z,1018.54
2018-02-27T10:04:16.638Z,1018.54
2018-02-27T10:05:16.628Z,1018.62
2018-02-27T10:06:16.614Z,1018.59
2018-02-27T10:07:16.598Z,1018.56
2018-02-27T10:08:16.589Z,1018.56
2018-02-27T10:09:16.573Z,1018.58
2018-02-27T10:10:16.562Z,1018.57
2018-02-27T10:11:16.547Z,1018.54
2018-02-27T10:12:16.540Z,1018.54
2018-02-27T10:13:16.525Z,1018.57
2018-02-27T10:14:16.511Z,1018.59
2018-02-27T10:15:16.497Z,1018.58
2018-02-27T10:16:16.488Z,1018.58
2018-02-27T10:17:16.473Z,1018.58
2018-02-27T10:18:16.511Z,1018.53
2018-02-27T10:19:16.447Z,1018.55
2018-02-27T10:20:16.439Z,1018.57
2018-02-27T10:21:16.426Z,1018.53
2018-02-27T10:22:16.410Z,1018.56
2018-02-27T10:23:16.395Z,1018.52
2018-02-27T10:24:16.384Z,1018.51
2018-02-27T10:25:16.372Z,1018.50
2018-02-27T10:26:16.359Z,1018.45
2018-02-27T10:27:16.345Z,1018.41
2018-02-27T10:28:16.333Z,1018.44
2018-02-27T10:29:16.336Z,1018.43
2018-02-27T10:30:16.311Z,1018.44
2018-02-27T10:31:16.298Z,1018.43
2018-02-27T10:32:16.282Z,1018.42
2018-02-27T10:33:16.271Z,1018.42
2018-02-27T10:34:16.256Z,1018.46
2018-02-27T10:35:16.248Z,1018.45
2018-02-27T10:36:16.232Z,1018.42
2018-02-27T10:37:16.219Z,1018.44
2018-02-27T10:38:16.206Z,1018.44
2018-02-27T10:39:16.196Z,1018.42
2018-02-27T10:40:16.181Z,1018.37
2018-02-27T10:41:16.169Z,1018.37
2018-02-27T10:42:16.162Z,1018.36
2018-02-27T10:43:16.147Z,1018.40
2018-02-27T10:44:16.127Z,1018.38
2018-02-27T10:45:16.118Z,1018.33
2018-02-27T10:46:16.104Z,1018.33
2018-02-27T10:47:16.093Z,1018.31
2018-02-27T10:48:16.087Z,1018.30
2018-02-27T10:49:16.068Z,1018.31
2018-02-27T10:50:16.054Z,1018.31
2018-02-27T10:51:16.040Z,1018.28
2018-02-27T10:52:16.029Z,1018.33
2018-02-27T10:53:16.017Z,1018.28
2018-02-27T10:54:16.003Z,1018.30
2018-02-27T10:55:15.990Z,1018.30
2018-02-27T10:56:15.978Z,1018.27
2018-02-27T10:57:15.974Z,1018.22
2018-02-27T10:58:15.954Z,1018.26
2018-02-27T10:59:15.942Z,1018.20
2018-02-27T11:00:15.929Z,1018.12
2018-02-27T11:01:15.916Z,1018.15
2018-02-27T11:02:15.905Z,1018.16
2018-02-27T11:03:15.893Z,1018.13
2018-02-27T11:04:15.878Z,1018.16
2018-02-27T11:05:15.868Z,1018.13
2018-02-27T11:06:15.857Z,1018.14
2018-02-27T11:07:15.841Z,1018.10
2018-02-27T11:08:15.830Z,1018.15
2018-02-27T11:09:15.818Z,1018.10
2018-02-27T11:10:15.802Z,1018.10
2018-02-27T11:11:15.790Z,1018.08
2018-02-27T11:12:15.781Z,1018.10
2018-02-27T11:13:15.770Z,1018.10
2018-02-27T11:14:15.759Z,1018.09
2018-02-27T11:15:15.741Z,1018.07
2018-02-27T11:16:15.732Z,1018.02
2018-02-27T11:17:15.720Z,1018.03
2018-02-27T11:18:15.701Z,1018.04
2018-02-27T11:19:15.691Z,1018.02
2018-02-27T11:20:15.681Z,1018.04
2018-02-27T11:21:15.673Z,1018.01
2018-02-27T11:22:15.698Z,1018.04
2018-02-27T11:23:15.648Z,1017.98
2018-02-27T11:24:15.629Z,1018.00
2018-02-27T11:25:15.620Z,1017.96
2018-02-27T11:26:15.607Z,1017.97
2018-02-27T11:27:15.596Z,1017.96
2018-02-27T11:28:15.585Z,1017.97
2018-02-27T11:29:15.571Z,1017.92
2018-02-27T11:30:15.568Z,1017.93
2018-02-27T11:31:15.545Z,1017.94
2018-02-27T11:32:15.533Z,1017.94
2018-02-27T11:33:15.523Z,1017.94
2018-02-27T11:34:15.512Z,1017.95
2018-02-27T11:35:15.496Z,1017.92
2018-02-27T11:36:15.490Z,1017.92
2018-02-27T11:37:15.472Z,1017.95
2018-02-27T11:38:15.468Z,1017.95
2018-02-27T11:39:15.449Z,1017.91
2018-02-27T11:40:15.436Z,1017.93
2018-02-27T11:41:15.425Z,1017.91
2018-02-27T11:42:15.410Z,1017.95
2018-02-27T11:43:15.401Z,1017.99
2018-02-27T11:44:15.387Z,1017.98
2018-02-27T11:45:15.377Z,1017.94
2018-02-27T11:46:15.364Z,1017.90
2018-02-27T11:47:15.351Z,1017.90
2018-02-27T11:48:15.340Z,1017.93
2018-02-27T11:49:15.326Z,1017.91
2018-02-27T11:50:15.313Z,1017.87
2018-02-27T11:51:15.304Z,1017.88
2018-02-27T11:52:15.295Z,1017.87
2018-02-27T11:53:15.278Z,1017.85
2018-02-27T11:54:15.264Z,1017.84
2018-02-27T11:55:15.259Z,1017.80
2018-02-27T11:56:15.242Z,1017.82
2018-02-27T11:57:15.242Z,1017.80
2018-02-27T11:58:15.216Z,1017.84
2018-02-27T11:59:15.206Z,1017.82
2018-02-27T12:00:15.193Z,1017.82
2018-02-27T12:01:15.182Z,1017.79
2018-02-27T12:02:15.168Z,1017.82
2018-02-27T12:03:15.150Z,1017.79
2018-02-27T12:04:15.154Z,1017.79
2018-02-27T12:05:15.135Z,1017.77